sensor_id;sensor_type;location;lat;lon;timestamp;P1;durP1;ratioP1;P2;durP2;ratioP2
69894;SDS011;57172;52.034;5.090;2023-04-19T00:02:21;11.95;;;7.28;;
69894;SDS011;57172;52.034;5.090;2023-04-19T00:04:49;13.40;;;7.70;;
69894;SDS011;57172;52.034;5.090;2023-04-19T00:07:16;12.65;;;7.15;;
69894;SDS011;57172;52.034;5.090;2023-04-19T00:09:43;11.43;;;7.25;;
69894;SDS011;57172;52.034;5.090;2023-04-19T00:12:10;12.93;;;7.27;;
69894;SDS011;57172;52.034;5.090;2023-04-19T00:14:37;12.88;;;7.57;;
69894;SDS011;57172;52.034;5.090;2023-04-19T00:17:04;13.77;;;7.78;;
69894;SDS011;57172;52.034;5.090;2023-04-19T00:19:31;14.80;;;7.63;;
69894;SDS011;57172;52.034;5.090;2023-04-19T00:21:58;13.00;;;7.40;;
69894;SDS011;57172;52.034;5.090;2023-04-19T00:24:25;14.73;;;7.67;;
69894;SDS011;57172;52.034;5.090;2023-04-19T00:26:52;12.25;;;7.57;;
69894;SDS011;57172;52.034;5.090;2023-04-19T00:29:19;12.43;;;7.80;;
69894;SDS011;57172;52.034;5.090;2023-04-19T00:31:45;12.25;;;7.78;;
69894;SDS011;57172;52.034;5.090;2023-04-19T00:34:12;14.48;;;7.90;;
69894;SDS011;57172;52.034;5.090;2023-04-19T00:36:40;14.03;;;8.30;;
69894;SDS011;57172;52.034;5.090;2023-04-19T00:39:06;13.02;;;8.25;;
69894;SDS011;57172;52.034;5.090;2023-04-19T00:41:36;14.02;;;8.18;;
69894;SDS011;57172;52.034;5.090;2023-04-19T00:44:03;13.55;;;7.63;;
69894;SDS011;57172;52.034;5.090;2023-04-19T00:46:31;13.05;;;8.15;;
69894;SDS011;57172;52.034;5.090;2023-04-19T00:48:58;13.63;;;8.10;;
69894;SDS011;57172;52.034;5.090;2023-04-19T00:51:25;14.35;;;8.20;;
69894;SDS011;57172;52.034;5.090;2023-04-19T00:53:53;15.23;;;8.63;;
69894;SDS011;57172;52.034;5.090;2023-04-19T00:56:20;14.60;;;8.60;;
69894;SDS011;57172;52.034;5.090;2023-04-19T00:58:51;14.57;;;8.00;;
69894;SDS011;57172;52.034;5.090;2023-04-19T01:01:19;17.43;;;8.47;;
69894;SDS011;57172;52.034;5.090;2023-04-19T01:03:47;13.70;;;8.30;;
69894;SDS011;57172;52.034;5.090;2023-04-19T01:06:14;15.02;;;8.23;;
69894;SDS011;57172;52.034;5.090;2023-04-19T01:08:41;14.65;;;8.88;;
69894;SDS011;57172;52.034;5.090;2023-04-19T01:11:08;15.57;;;8.80;;
69894;SDS011;57172;52.034;5.090;2023-04-19T01:13:35;15.47;;;8.57;;
69894;SDS011;57172;52.034;5.090;2023-04-19T01:16:02;14.00;;;8.05;;
69894;SDS011;57172;52.034;5.090;2023-04-19T01:18:29;13.35;;;8.20;;
69894;SDS011;57172;52.034;5.090;2023-04-19T01:21:03;16.60;;;7.80;;
69894;SDS011;57172;52.034;5.090;2023-04-19T01:23:30;15.23;;;8.52;;
69894;SDS011;57172;52.034;5.090;2023-04-19T01:25:57;15.00;;;8.20;;
69894;SDS011;57172;52.034;5.090;2023-04-19T01:28:26;15.15;;;8.75;;
69894;SDS011;57172;52.034;5.090;2023-04-19T01:30:53;13.88;;;8.55;;
69894;SDS011;57172;52.034;5.090;2023-04-19T01:33:20;16.63;;;8.85;;
69894;SDS011;57172;52.034;5.090;2023-04-19T01:35:47;14.13;;;8.90;;
69894;SDS011;57172;52.034;5.090;2023-04-19T01:38:15;15.90;;;9.20;;
69894;SDS011;57172;52.034;5.090;2023-04-19T01:40:42;14.75;;;8.73;;
69894;SDS011;57172;52.034;5.090;2023-04-19T01:43:13;15.68;;;9.10;;
69894;SDS011;57172;52.034;5.090;2023-04-19T01:45:42;15.85;;;9.10;;
69894;SDS011;57172;52.034;5.090;2023-04-19T01:48:10;15.98;;;8.98;;
69894;SDS011;57172;52.034;5.090;2023-04-19T01:50:37;17.20;;;8.87;;
69894;SDS011;57172;52.034;5.090;2023-04-19T01:53:04;15.13;;;8.82;;
69894;SDS011;57172;52.034;5.090;2023-04-19T01:55:31;15.40;;;9.18;;
69894;SDS011;57172;52.034;5.090;2023-04-19T01:57:58;14.60;;;8.88;;
69894;SDS011;57172;52.034;5.090;2023-04-19T02:00:24;15.68;;;9.30;;
69894;SDS011;57172;52.034;5.090;2023-04-19T02:02:51;16.43;;;9.17;;
69894;SDS011;57172;52.034;5.090;2023-04-19T02:05:19;18.90;;;9.18;;
69894;SDS011;57172;52.034;5.090;2023-04-19T02:07:46;16.33;;;8.98;;
69894;SDS011;57172;52.034;5.090;2023-04-19T02:10:13;16.08;;;9.68;;
69894;SDS011;57172;52.034;5.090;2023-04-19T02:12:40;14.85;;;9.32;;
69894;SDS011;57172;52.034;5.090;2023-04-19T02:15:08;16.53;;;8.97;;
69894;SDS011;57172;52.034;5.090;2023-04-19T02:17:35;16.40;;;9.20;;
69894;SDS011;57172;52.034;5.090;2023-04-19T02:20:02;17.75;;;9.60;;
69894;SDS011;57172;52.034;5.090;2023-04-19T02:22:30;17.23;;;9.40;;
69894;SDS011;57172;52.034;5.090;2023-04-19T02:24:56;16.63;;;9.48;;
69894;SDS011;57172;52.034;5.090;2023-04-19T02:27:28;15.13;;;9.53;;
69894;SDS011;57172;52.034;5.090;2023-04-19T02:29:54;16.08;;;9.13;;
69894;SDS011;57172;52.034;5.090;2023-04-19T02:32:22;17.55;;;9.30;;
69894;SDS011;57172;52.034;5.090;2023-04-19T02:34:49;15.23;;;9.23;;
69894;SDS011;57172;52.034;5.090;2023-04-19T02:37:17;15.50;;;9.02;;
69894;SDS011;57172;52.034;5.090;2023-04-19T02:39:44;15.97;;;9.60;;
69894;SDS011;57172;52.034;5.090;2023-04-19T02:42:11;15.85;;;9.15;;
69894;SDS011;57172;52.034;5.090;2023-04-19T02:44:38;16.02;;;9.35;;
69894;SDS011;57172;52.034;5.090;2023-04-19T02:47:05;17.67;;;9.57;;
69894;SDS011;57172;52.034;5.090;2023-04-19T02:49:32;16.40;;;9.50;;
69894;SDS011;57172;52.034;5.090;2023-04-19T02:52:02;16.17;;;8.60;;
69894;SDS011;57172;52.034;5.090;2023-04-19T02:54:32;16.55;;;9.52;;
69894;SDS011;57172;52.034;5.090;2023-04-19T02:56:59;16.88;;;9.48;;
69894;SDS011;57172;52.034;5.090;2023-04-19T02:59:26;16.58;;;9.45;;
69894;SDS011;57172;52.034;5.090;2023-04-19T03:01:55;16.95;;;9.55;;
69894;SDS011;57172;52.034;5.090;2023-04-19T03:04:23;17.17;;;9.97;;
69894;SDS011;57172;52.034;5.090;2023-04-19T03:06:51;18.08;;;9.43;;
69894;SDS011;57172;52.034;5.090;2023-04-19T03:09:18;15.07;;;9.27;;
69894;SDS011;57172;52.034;5.090;2023-04-19T03:11:45;15.27;;;9.02;;
69894;SDS011;57172;52.034;5.090;2023-04-19T03:14:12;17.52;;;10.10;;
69894;SDS011;57172;52.034;5.090;2023-04-19T03:16:39;16.67;;;9.27;;
69894;SDS011;57172;52.034;5.090;2023-04-19T03:19:07;16.98;;;9.40;;
69894;SDS011;57172;52.034;5.090;2023-04-19T03:21:40;19.33;;;9.48;;
69894;SDS011;57172;52.034;5.090;2023-04-19T03:24:07;14.73;;;8.98;;
69894;SDS011;57172;52.034;5.090;2023-04-19T03:26:37;16.23;;;9.05;;
69894;SDS011;57172;52.034;5.090;2023-04-19T03:29:05;16.90;;;9.27;;
69894;SDS011;57172;52.034;5.090;2023-04-19T03:31:42;15.75;;;9.13;;
69894;SDS011;57172;52.034;5.090;2023-04-19T03:34:11;15.02;;;9.05;;
69894;SDS011;57172;52.034;5.090;2023-04-19T03:36:41;15.25;;;8.48;;
69894;SDS011;57172;52.034;5.090;2023-04-19T03:39:09;15.00;;;8.85;;
69894;SDS011;57172;52.034;5.090;2023-04-19T03:41:38;16.07;;;8.87;;
69894;SDS011;57172;52.034;5.090;2023-04-19T03:44:35;16.08;;;8.77;;
69894;SDS011;57172;52.034;5.090;2023-04-19T03:47:04;13.82;;;8.40;;
69894;SDS011;57172;52.034;5.090;2023-04-19T03:49:37;13.88;;;8.45;;
69894;SDS011;57172;52.034;5.090;2023-04-19T03:52:05;15.25;;;8.98;;
69894;SDS011;57172;52.034;5.090;2023-04-19T03:54:32;16.33;;;8.87;;
69894;SDS011;57172;52.034;5.090;2023-04-19T03:57:00;16.00;;;8.60;;
69894;SDS011;57172;52.034;5.090;2023-04-19T03:59:28;14.95;;;8.75;;
69894;SDS011;57172;52.034;5.090;2023-04-19T04:01:56;14.88;;;8.48;;
69894;SDS011;57172;52.034;5.090;2023-04-19T04:04:23;14.98;;;8.70;;
69894;SDS011;57172;52.034;5.090;2023-04-19T04:06:51;16.77;;;8.73;;
69894;SDS011;57172;52.034;5.090;2023-04-19T04:09:17;15.27;;;8.40;;
69894;SDS011;57172;52.034;5.090;2023-04-19T04:11:44;15.45;;;8.70;;
69894;SDS011;57172;52.034;5.090;2023-04-19T04:14:12;15.43;;;8.40;;
69894;SDS011;57172;52.034;5.090;2023-04-19T04:16:39;16.60;;;8.70;;
69894;SDS011;57172;52.034;5.090;2023-04-19T04:19:06;15.00;;;8.47;;
69894;SDS011;57172;52.034;5.090;2023-04-19T04:21:36;14.27;;;8.43;;
69894;SDS011;57172;52.034;5.090;2023-04-19T04:24:05;13.32;;;8.38;;
69894;SDS011;57172;52.034;5.090;2023-04-19T04:26:42;13.68;;;8.23;;
69894;SDS011;57172;52.034;5.090;2023-04-19T04:29:17;14.82;;;8.20;;
69894;SDS011;57172;52.034;5.090;2023-04-19T04:31:45;14.43;;;8.53;;
69894;SDS011;57172;52.034;5.090;2023-04-19T04:34:14;16.23;;;8.13;;
69894;SDS011;57172;52.034;5.090;2023-04-19T04:36:49;14.68;;;7.97;;
69894;SDS011;57172;52.034;5.090;2023-04-19T04:39:18;15.73;;;8.05;;
69894;SDS011;57172;52.034;5.090;2023-04-19T04:41:46;14.75;;;7.70;;
69894;SDS011;57172;52.034;5.090;2023-04-19T04:44:13;15.13;;;7.57;;
69894;SDS011;57172;52.034;5.090;2023-04-19T04:46:42;13.88;;;7.82;;
69894;SDS011;57172;52.034;5.090;2023-04-19T04:49:12;14.65;;;7.82;;
69894;SDS011;57172;52.034;5.090;2023-04-19T04:51:40;14.45;;;7.78;;
69894;SDS011;57172;52.034;5.090;2023-04-19T04:54:08;14.68;;;8.00;;
69894;SDS011;57172;52.034;5.090;2023-04-19T04:56:35;13.20;;;7.80;;
69894;SDS011;57172;52.034;5.090;2023-04-19T04:59:02;14.00;;;7.25;;
69894;SDS011;57172;52.034;5.090;2023-04-19T05:01:33;14.60;;;8.00;;
69894;SDS011;57172;52.034;5.090;2023-04-19T05:04:00;16.85;;;8.27;;
69894;SDS011;57172;52.034;5.090;2023-04-19T05:06:27;16.08;;;7.80;;
69894;SDS011;57172;52.034;5.090;2023-04-19T05:08:54;15.43;;;7.90;;
69894;SDS011;57172;52.034;5.090;2023-04-19T05:11:30;16.00;;;7.70;;
69894;SDS011;57172;52.034;5.090;2023-04-19T05:13:57;13.23;;;7.80;;
69894;SDS011;57172;52.034;5.090;2023-04-19T05:16:25;13.52;;;7.53;;
69894;SDS011;57172;52.034;5.090;2023-04-19T05:18:52;16.83;;;7.40;;
69894;SDS011;57172;52.034;5.090;2023-04-19T05:21:20;15.17;;;7.90;;
69894;SDS011;57172;52.034;5.090;2023-04-19T05:23:48;12.02;;;7.47;;
69894;SDS011;57172;52.034;5.090;2023-04-19T05:26:14;16.77;;;7.72;;
69894;SDS011;57172;52.034;5.090;2023-04-19T05:28:43;16.08;;;7.65;;
69894;SDS011;57172;52.034;5.090;2023-04-19T05:31:19;12.77;;;7.10;;
69894;SDS011;57172;52.034;5.090;2023-04-19T05:34:09;12.57;;;7.47;;
69894;SDS011;57172;52.034;5.090;2023-04-19T05:36:36;13.73;;;7.53;;
69894;SDS011;57172;52.034;5.090;2023-04-19T05:39:03;13.23;;;7.90;;
69894;SDS011;57172;52.034;5.090;2023-04-19T05:41:29;16.30;;;7.28;;
69894;SDS011;57172;52.034;5.090;2023-04-19T05:43:56;14.80;;;7.40;;
69894;SDS011;57172;52.034;5.090;2023-04-19T05:46:24;14.13;;;7.13;;
69894;SDS011;57172;52.034;5.090;2023-04-19T05:48:51;12.45;;;7.20;;
69894;SDS011;57172;52.034;5.090;2023-04-19T05:51:41;13.52;;;7.65;;
69894;SDS011;57172;52.034;5.090;2023-04-19T05:54:31;12.35;;;7.22;;
69894;SDS011;57172;52.034;5.090;2023-04-19T05:57:02;18.95;;;7.18;;
69894;SDS011;57172;52.034;5.090;2023-04-19T05:59:29;12.73;;;6.80;;
69894;SDS011;57172;52.034;5.090;2023-04-19T06:01:56;13.07;;;7.20;;
69894;SDS011;57172;52.034;5.090;2023-04-19T06:04:23;18.17;;;7.10;;
69894;SDS011;57172;52.034;5.090;2023-04-19T06:06:51;12.65;;;6.78;;
69894;SDS011;57172;52.034;5.090;2023-04-19T06:09:17;11.77;;;6.57;;
69894;SDS011;57172;52.034;5.090;2023-04-19T06:11:44;11.17;;;6.23;;
69894;SDS011;57172;52.034;5.090;2023-04-19T06:14:16;12.50;;;6.88;;
69894;SDS011;57172;52.034;5.090;2023-04-19T06:16:44;14.63;;;6.90;;
69894;SDS011;57172;52.034;5.090;2023-04-19T06:19:11;12.13;;;6.78;;
69894;SDS011;57172;52.034;5.090;2023-04-19T06:21:38;12.98;;;6.82;;
69894;SDS011;57172;52.034;5.090;2023-04-19T06:24:06;15.57;;;6.70;;
69894;SDS011;57172;52.034;5.090;2023-04-19T06:26:33;14.57;;;7.20;;
69894;SDS011;57172;52.034;5.090;2023-04-19T06:29:00;12.68;;;6.50;;
69894;SDS011;57172;52.034;5.090;2023-04-19T06:31:27;12.57;;;6.63;;
69894;SDS011;57172;52.034;5.090;2023-04-19T06:33:54;12.65;;;6.90;;
69894;SDS011;57172;52.034;5.090;2023-04-19T06:36:21;12.87;;;6.77;;
69894;SDS011;57172;52.034;5.090;2023-04-19T06:38:48;13.55;;;6.20;;
69894;SDS011;57172;52.034;5.090;2023-04-19T06:41:15;12.45;;;6.38;;
69894;SDS011;57172;52.034;5.090;2023-04-19T06:43:43;10.20;;;6.20;;
69894;SDS011;57172;52.034;5.090;2023-04-19T06:46:10;9.88;;;6.28;;
69894;SDS011;57172;52.034;5.090;2023-04-19T06:48:39;12.27;;;5.70;;
69894;SDS011;57172;52.034;5.090;2023-04-19T06:51:06;12.13;;;6.20;;
69894;SDS011;57172;52.034;5.090;2023-04-19T06:53:33;13.68;;;6.05;;
69894;SDS011;57172;52.034;5.090;2023-04-19T06:56:01;15.75;;;6.00;;
69894;SDS011;57172;52.034;5.090;2023-04-19T06:58:31;10.07;;;5.55;;
69894;SDS011;57172;52.034;5.090;2023-04-19T07:01:00;11.60;;;6.00;;
69894;SDS011;57172;52.034;5.090;2023-04-19T07:03:29;12.57;;;5.70;;
69894;SDS011;57172;52.034;5.090;2023-04-19T07:05:57;11.48;;;5.70;;
69894;SDS011;57172;52.034;5.090;2023-04-19T07:08:24;11.20;;;5.80;;
69894;SDS011;57172;52.034;5.090;2023-04-19T07:11:07;8.50;;;5.20;;
69894;SDS011;57172;52.034;5.090;2023-04-19T07:13:34;10.73;;;5.23;;
69894;SDS011;57172;52.034;5.090;2023-04-19T07:16:04;12.00;;;5.55;;
69894;SDS011;57172;52.034;5.090;2023-04-19T07:18:32;11.15;;;5.32;;
69894;SDS011;57172;52.034;5.090;2023-04-19T07:20:59;10.63;;;5.22;;
69894;SDS011;57172;52.034;5.090;2023-04-19T07:23:26;9.35;;;5.25;;
69894;SDS011;57172;52.034;5.090;2023-04-19T07:25:53;8.33;;;4.93;;
69894;SDS011;57172;52.034;5.090;2023-04-19T07:28:19;10.65;;;5.40;;
69894;SDS011;57172;52.034;5.090;2023-04-19T07:30:46;10.07;;;4.80;;
69894;SDS011;57172;52.034;5.090;2023-04-19T07:33:13;12.98;;;4.80;;
69894;SDS011;57172;52.034;5.090;2023-04-19T07:35:41;6.97;;;4.10;;
69894;SDS011;57172;52.034;5.090;2023-04-19T07:38:08;8.30;;;4.70;;
69894;SDS011;57172;52.034;5.090;2023-04-19T07:40:35;8.95;;;4.38;;
69894;SDS011;57172;52.034;5.090;2023-04-19T07:43:01;11.20;;;4.47;;
69894;SDS011;57172;52.034;5.090;2023-04-19T07:45:29;8.35;;;4.40;;
69894;SDS011;57172;52.034;5.090;2023-04-19T07:47:56;8.52;;;4.60;;
69894;SDS011;57172;52.034;5.090;2023-04-19T07:50:26;7.23;;;4.33;;
69894;SDS011;57172;52.034;5.090;2023-04-19T07:52:53;7.13;;;4.20;;
69894;SDS011;57172;52.034;5.090;2023-04-19T07:55:20;6.78;;;4.20;;
69894;SDS011;57172;52.034;5.090;2023-04-19T07:57:48;7.32;;;4.05;;
69894;SDS011;57172;52.034;5.090;2023-04-19T08:00:16;7.15;;;4.10;;
69894;SDS011;57172;52.034;5.090;2023-04-19T08:02:43;11.03;;;4.10;;
69894;SDS011;57172;52.034;5.090;2023-04-19T08:05:12;7.57;;;3.90;;
69894;SDS011;57172;52.034;5.090;2023-04-19T08:07:42;9.50;;;3.78;;
69894;SDS011;57172;52.034;5.090;2023-04-19T08:10:10;8.57;;;4.13;;
69894;SDS011;57172;52.034;5.090;2023-04-19T08:12:38;7.63;;;4.20;;
69894;SDS011;57172;52.034;5.090;2023-04-19T08:15:22;7.13;;;4.00;;
69894;SDS011;57172;52.034;5.090;2023-04-19T08:18:09;7.10;;;4.00;;
69894;SDS011;57172;52.034;5.090;2023-04-19T08:20:36;8.30;;;3.97;;
69894;SDS011;57172;52.034;5.090;2023-04-19T08:23:03;7.88;;;4.00;;
69894;SDS011;57172;52.034;5.090;2023-04-19T08:25:48;6.60;;;3.85;;
69894;SDS011;57172;52.034;5.090;2023-04-19T08:28:15;5.90;;;3.87;;
69894;SDS011;57172;52.034;5.090;2023-04-19T08:30:43;9.02;;;3.90;;
69894;SDS011;57172;52.034;5.090;2023-04-19T08:33:10;8.98;;;4.05;;
69894;SDS011;57172;52.034;5.090;2023-04-19T08:35:38;8.18;;;4.03;;
69894;SDS011;57172;52.034;5.090;2023-04-19T08:38:07;22.55;;;4.45;;
69894;SDS011;57172;52.034;5.090;2023-04-19T08:40:35;15.87;;;4.30;;
69894;SDS011;57172;52.034;5.090;2023-04-19T08:43:06;18.05;;;4.00;;
69894;SDS011;57172;52.034;5.090;2023-04-19T08:45:33;10.40;;;3.80;;
69894;SDS011;57172;52.034;5.090;2023-04-19T08:48:01;7.30;;;4.05;;
69894;SDS011;57172;52.034;5.090;2023-04-19T08:50:30;8.50;;;3.85;;
69894;SDS011;57172;52.034;5.090;2023-04-19T08:53:14;7.87;;;3.63;;
69894;SDS011;57172;52.034;5.090;2023-04-19T08:55:51;10.23;;;3.85;;
69894;SDS011;57172;52.034;5.090;2023-04-19T08:58:26;8.02;;;3.45;;
69894;SDS011;57172;52.034;5.090;2023-04-19T09:01:15;7.90;;;4.00;;
69894;SDS011;57172;52.034;5.090;2023-04-19T09:03:58;5.60;;;3.60;;
69894;SDS011;57172;52.034;5.090;2023-04-19T09:06:45;6.03;;;3.50;;
69894;SDS011;57172;52.034;5.090;2023-04-19T09:12:14;7.15;;;3.60;;
69894;SDS011;57172;52.034;5.090;2023-04-19T09:14:43;11.38;;;3.88;;
69894;SDS011;57172;52.034;5.090;2023-04-19T09:17:26;6.03;;;3.45;;
69894;SDS011;57172;52.034;5.090;2023-04-19T09:19:53;10.20;;;3.10;;
69894;SDS011;57172;52.034;5.090;2023-04-19T09:22:20;7.47;;;2.60;;
69894;SDS011;57172;52.034;5.090;2023-04-19T09:24:47;6.53;;;2.70;;
69894;SDS011;57172;52.034;5.090;2023-04-19T09:27:26;5.88;;;2.80;;
69894;SDS011;57172;52.034;5.090;2023-04-19T09:29:56;5.53;;;2.78;;
69894;SDS011;57172;52.034;5.090;2023-04-19T09:32:24;8.30;;;3.00;;
69894;SDS011;57172;52.034;5.090;2023-04-19T09:34:52;4.95;;;3.00;;
69894;SDS011;57172;52.034;5.090;2023-04-19T09:37:24;4.03;;;2.55;;
69894;SDS011;57172;52.034;5.090;2023-04-19T09:39:54;4.25;;;2.25;;
69894;SDS011;57172;52.034;5.090;2023-04-19T09:42:21;3.80;;;1.90;;
69894;SDS011;57172;52.034;5.090;2023-04-19T09:45:08;4.83;;;2.20;;
69894;SDS011;57172;52.034;5.090;2023-04-19T09:47:38;5.43;;;2.00;;
69894;SDS011;57172;52.034;5.090;2023-04-19T09:50:08;4.55;;;2.03;;
69894;SDS011;57172;52.034;5.090;2023-04-19T09:52:49;7.13;;;2.17;;
69894;SDS011;57172;52.034;5.090;2023-04-19T09:55:18;5.47;;;1.90;;
69894;SDS011;57172;52.034;5.090;2023-04-19T09:57:48;6.00;;;1.70;;
69894;SDS011;57172;52.034;5.090;2023-04-19T10:00:15;4.25;;;1.80;;
69894;SDS011;57172;52.034;5.090;2023-04-19T10:02:42;4.65;;;1.92;;
69894;SDS011;57172;52.034;5.090;2023-04-19T10:05:10;6.00;;;2.10;;
69894;SDS011;57172;52.034;5.090;2023-04-19T10:07:48;2.97;;;2.00;;
69894;SDS011;57172;52.034;5.090;2023-04-19T10:10:15;5.57;;;2.23;;
69894;SDS011;57172;52.034;5.090;2023-04-19T10:12:48;5.35;;;1.98;;
69894;SDS011;57172;52.034;5.090;2023-04-19T10:15:21;4.35;;;2.00;;
69894;SDS011;57172;52.034;5.090;2023-04-19T10:17:48;5.53;;;1.83;;
69894;SDS011;57172;52.034;5.090;2023-04-19T10:20:22;4.40;;;2.30;;
69894;SDS011;57172;52.034;5.090;2023-04-19T10:23:05;5.40;;;2.30;;
69894;SDS011;57172;52.034;5.090;2023-04-19T10:25:36;9.18;;;2.35;;
69894;SDS011;57172;52.034;5.090;2023-04-19T10:28:03;8.38;;;2.15;;
69894;SDS011;57172;52.034;5.090;2023-04-19T10:30:30;6.13;;;2.10;;
69894;SDS011;57172;52.034;5.090;2023-04-19T10:32:58;4.43;;;2.50;;
69894;SDS011;57172;52.034;5.090;2023-04-19T10:35:35;5.03;;;2.20;;
69894;SDS011;57172;52.034;5.090;2023-04-19T10:38:06;4.55;;;2.38;;
69894;SDS011;57172;52.034;5.090;2023-04-19T10:43:21;6.78;;;2.38;;
69894;SDS011;57172;52.034;5.090;2023-04-19T10:45:49;3.38;;;2.40;;
69894;SDS011;57172;52.034;5.090;2023-04-19T11:01:48;4.57;;;2.53;;
69894;SDS011;57172;52.034;5.090;2023-04-19T11:04:23;4.50;;;2.22;;
69894;SDS011;57172;52.034;5.090;2023-04-19T11:07:10;8.63;;;2.50;;
69894;SDS011;57172;52.034;5.090;2023-04-19T11:09:38;5.28;;;2.20;;
69894;SDS011;57172;52.034;5.090;2023-04-19T11:12:11;5.40;;;2.20;;
69894;SDS011;57172;52.034;5.090;2023-04-19T11:14:43;3.17;;;2.00;;
69894;SDS011;57172;52.034;5.090;2023-04-19T11:17:18;5.10;;;2.10;;
69894;SDS011;57172;52.034;5.090;2023-04-19T11:19:54;3.95;;;2.28;;
69894;SDS011;57172;52.034;5.090;2023-04-19T11:22:25;8.15;;;2.22;;
69894;SDS011;57172;52.034;5.090;2023-04-19T11:27:33;5.37;;;2.20;;
69894;SDS011;57172;52.034;5.090;2023-04-19T11:30:03;4.50;;;2.28;;
69894;SDS011;57172;52.034;5.090;2023-04-19T11:32:35;9.00;;;2.75;;
69894;SDS011;57172;52.034;5.090;2023-04-19T11:35:06;5.10;;;2.03;;
69894;SDS011;57172;52.034;5.090;2023-04-19T11:37:35;5.32;;;2.10;;
69894;SDS011;57172;52.034;5.090;2023-04-19T11:40:04;3.83;;;2.10;;
69894;SDS011;57172;52.034;5.090;2023-04-19T11:42:32;4.18;;;2.10;;
69894;SDS011;57172;52.034;5.090;2023-04-19T11:44:59;5.10;;;2.10;;
69894;SDS011;57172;52.034;5.090;2023-04-19T11:47:26;3.92;;;2.05;;
69894;SDS011;57172;52.034;5.090;2023-04-19T11:49:53;5.95;;;2.35;;
69894;SDS011;57172;52.034;5.090;2023-04-19T11:52:22;4.73;;;2.20;;
69894;SDS011;57172;52.034;5.090;2023-04-19T11:54:53;4.55;;;2.40;;
69894;SDS011;57172;52.034;5.090;2023-04-19T11:57:29;4.47;;;2.40;;
69894;SDS011;57172;52.034;5.090;2023-04-19T12:00:01;4.20;;;2.40;;
69894;SDS011;57172;52.034;5.090;2023-04-19T12:02:38;5.65;;;2.35;;
69894;SDS011;57172;52.034;5.090;2023-04-19T12:05:07;4.77;;;2.37;;
69894;SDS011;57172;52.034;5.090;2023-04-19T12:07:35;6.00;;;2.67;;
69894;SDS011;57172;52.034;5.090;2023-04-19T12:10:09;7.38;;;2.55;;
69894;SDS011;57172;52.034;5.090;2023-04-19T12:12:37;9.07;;;2.58;;
69894;SDS011;57172;52.034;5.090;2023-04-19T12:15:05;12.02;;;2.78;;
69894;SDS011;57172;52.034;5.090;2023-04-19T12:17:32;4.50;;;2.43;;
69894;SDS011;57172;52.034;5.090;2023-04-19T12:20:01;7.57;;;2.60;;
69894;SDS011;57172;52.034;5.090;2023-04-19T12:22:29;6.80;;;2.60;;
69894;SDS011;57172;52.034;5.090;2023-04-19T12:24:56;11.25;;;2.70;;
69894;SDS011;57172;52.034;5.090;2023-04-19T12:27:23;6.53;;;2.70;;
69894;SDS011;57172;52.034;5.090;2023-04-19T12:29:51;6.27;;;2.57;;
69894;SDS011;57172;52.034;5.090;2023-04-19T12:32:18;6.65;;;2.55;;
69894;SDS011;57172;52.034;5.090;2023-04-19T12:34:45;7.65;;;2.67;;
69894;SDS011;57172;52.034;5.090;2023-04-19T12:37:12;7.63;;;3.00;;
69894;SDS011;57172;52.034;5.090;2023-04-19T12:39:39;7.20;;;2.60;;
69894;SDS011;57172;52.034;5.090;2023-04-19T12:42:06;9.97;;;2.90;;
69894;SDS011;57172;52.034;5.090;2023-04-19T12:44:33;7.03;;;3.30;;
69894;SDS011;57172;52.034;5.090;2023-04-19T12:47:00;6.18;;;2.92;;
69894;SDS011;57172;52.034;5.090;2023-04-19T12:49:26;12.35;;;2.97;;
69894;SDS011;57172;52.034;5.090;2023-04-19T12:51:53;7.80;;;2.80;;
69894;SDS011;57172;52.034;5.090;2023-04-19T12:54:22;7.30;;;2.90;;
69894;SDS011;57172;52.034;5.090;2023-04-19T12:56:49;8.02;;;2.75;;
69894;SDS011;57172;52.034;5.090;2023-04-19T12:59:16;9.05;;;3.42;;
69894;SDS011;57172;52.034;5.090;2023-04-19T13:01:44;6.63;;;2.85;;
69894;SDS011;57172;52.034;5.090;2023-04-19T13:04:11;6.57;;;3.00;;
69894;SDS011;57172;52.034;5.090;2023-04-19T13:06:38;7.30;;;3.00;;
69894;SDS011;57172;52.034;5.090;2023-04-19T13:09:05;7.15;;;3.20;;
69894;SDS011;57172;52.034;5.090;2023-04-19T13:11:39;10.63;;;3.35;;
69894;SDS011;57172;52.034;5.090;2023-04-19T13:14:06;10.60;;;3.38;;
69894;SDS011;57172;52.034;5.090;2023-04-19T13:16:33;6.47;;;2.90;;
69894;SDS011;57172;52.034;5.090;2023-04-19T13:19:00;6.63;;;3.20;;
69894;SDS011;57172;52.034;5.090;2023-04-19T13:21:27;7.00;;;3.10;;
69894;SDS011;57172;52.034;5.090;2023-04-19T13:23:54;7.95;;;3.17;;
69894;SDS011;57172;52.034;5.090;2023-04-19T13:26:23;12.68;;;3.40;;
69894;SDS011;57172;52.034;5.090;2023-04-19T13:28:50;9.68;;;3.20;;
69894;SDS011;57172;52.034;5.090;2023-04-19T13:31:17;7.30;;;3.13;;
69894;SDS011;57172;52.034;5.090;2023-04-19T13:33:44;7.47;;;2.80;;
69894;SDS011;57172;52.034;5.090;2023-04-19T13:36:11;6.80;;;3.10;;
69894;SDS011;57172;52.034;5.090;2023-04-19T13:38:38;5.53;;;3.00;;
69894;SDS011;57172;52.034;5.090;2023-04-19T13:41:05;7.43;;;3.10;;
69894;SDS011;57172;52.034;5.090;2023-04-19T13:43:32;4.87;;;2.73;;
69894;SDS011;57172;52.034;5.090;2023-04-19T13:45:59;5.80;;;3.05;;
69894;SDS011;57172;52.034;5.090;2023-04-19T13:48:26;4.82;;;2.90;;
69894;SDS011;57172;52.034;5.090;2023-04-19T13:50:54;5.25;;;2.90;;
69894;SDS011;57172;52.034;5.090;2023-04-19T13:53:22;5.47;;;2.90;;
69894;SDS011;57172;52.034;5.090;2023-04-19T13:55:49;6.10;;;2.90;;
69894;SDS011;57172;52.034;5.090;2023-04-19T13:58:17;6.38;;;3.28;;
69894;SDS011;57172;52.034;5.090;2023-04-19T14:00:44;7.30;;;3.60;;
69894;SDS011;57172;52.034;5.090;2023-04-19T14:03:13;5.95;;;3.45;;
69894;SDS011;57172;52.034;5.090;2023-04-19T14:05:40;5.88;;;3.20;;
69894;SDS011;57172;52.034;5.090;2023-04-19T14:08:07;4.73;;;3.20;;
69894;SDS011;57172;52.034;5.090;2023-04-19T14:10:34;7.78;;;3.00;;
69894;SDS011;57172;52.034;5.090;2023-04-19T14:13:01;5.40;;;3.20;;
69894;SDS011;57172;52.034;5.090;2023-04-19T14:15:29;7.13;;;2.97;;
69894;SDS011;57172;52.034;5.090;2023-04-19T14:17:56;7.22;;;3.10;;
69894;SDS011;57172;52.034;5.090;2023-04-19T14:20:22;5.87;;;3.03;;
69894;SDS011;57172;52.034;5.090;2023-04-19T14:22:49;5.85;;;2.90;;
69894;SDS011;57172;52.034;5.090;2023-04-19T14:25:16;7.68;;;3.30;;
69894;SDS011;57172;52.034;5.090;2023-04-19T14:27:43;6.60;;;3.10;;
69894;SDS011;57172;52.034;5.090;2023-04-19T14:30:10;6.60;;;3.15;;
69894;SDS011;57172;52.034;5.090;2023-04-19T14:32:37;5.70;;;2.90;;
69894;SDS011;57172;52.034;5.090;2023-04-19T14:35:04;5.47;;;3.20;;
69894;SDS011;57172;52.034;5.090;2023-04-19T14:37:33;7.72;;;3.15;;
69894;SDS011;57172;52.034;5.090;2023-04-19T14:40:00;8.18;;;3.03;;
69894;SDS011;57172;52.034;5.090;2023-04-19T14:42:27;5.28;;;2.80;;
69894;SDS011;57172;52.034;5.090;2023-04-19T14:44:54;5.03;;;3.00;;
69894;SDS011;57172;52.034;5.090;2023-04-19T14:47:22;6.22;;;2.90;;
69894;SDS011;57172;52.034;5.090;2023-04-19T14:49:49;5.50;;;3.20;;
69894;SDS011;57172;52.034;5.090;2023-04-19T14:52:16;5.88;;;2.92;;
69894;SDS011;57172;52.034;5.090;2023-04-19T14:54:46;7.05;;;3.08;;
69894;SDS011;57172;52.034;5.090;2023-04-19T14:57:12;6.30;;;2.80;;
69894;SDS011;57172;52.034;5.090;2023-04-19T14:59:39;7.38;;;3.10;;
69894;SDS011;57172;52.034;5.090;2023-04-19T15:02:06;5.75;;;2.80;;
69894;SDS011;57172;52.034;5.090;2023-04-19T15:04:36;5.97;;;2.95;;
69894;SDS011;57172;52.034;5.090;2023-04-19T15:07:06;5.40;;;2.80;;
69894;SDS011;57172;52.034;5.090;2023-04-19T15:09:33;4.80;;;2.80;;
69894;SDS011;57172;52.034;5.090;2023-04-19T15:12:00;6.45;;;2.60;;
69894;SDS011;57172;52.034;5.090;2023-04-19T15:14:27;7.32;;;2.80;;